Time;durP1;ratioP1;P1;durP2;ratioP2;P2;SDS_P1;SDS_P2;PMS_P1;PMS_P2;Temp;Humidity;BMP_temperature;BMP_pressure;BME280_temperature;BME280_humidity;BME280_pressure;Samples;Min_cycle;Max_cycle;Signal;HPM_P1;HPM_P2
2022/09/25 00:00:46;;;;;;;19.27;5.23;;;;;;;-145.18;100.00;46660.41;6243122;23;20559;-79
2022/09/25 00:03:14;;;;;;;17.13;5.43;;;;;;;-145.18;100.00;46660.41;6242083;23;21104;-78
2022/09/25 00:05:41;;;;;;;18.73;6.23;;;;;;;-145.18;100.00;46656.50;6242796;23;20287;-78
2022/09/25 00:08:09;;;;;;;12.37;4.93;;;;;;;-145.18;100.00;46650.63;6241977;23;20234;-76
2022/09/25 00:10:43;;;;;;;17.47;5.73;;;;;;;-145.18;100.00;46652.59;6242862;23;20543;-80
2022/09/25 00:13:09;;;;;;;13.53;5.57;;;;;;;-145.18;100.00;46658.44;6242521;23;20272;-79
2022/09/25 00:15:34;;;;;;;14.67;6.20;;;;;;;-145.18;100.00;46656.50;6242813;23;20309;-79
2022/09/25 00:17:59;;;;;;;14.93;5.40;;;;;;;-145.18;100.00;46656.50;6216282;23;20485;-78
2022/09/25 00:20:25;;;;;;;15.20;5.43;;;;;;;-145.18;100.00;46660.41;6244916;23;20008;-78
2022/09/25 00:22:53;;;;;;;14.10;5.57;;;;;;;-145.18;100.00;46656.50;6217376;23;20130;-78
2022/09/25 00:25:19;;;;;;;16.73;6.33;;;;;;;-145.18;100.00;46656.50;6245107;23;20004;-78
2022/09/25 00:27:45;;;;;;;13.57;5.43;;;;;;;-145.18;100.00;46658.44;6244347;23;20567;-78
2022/09/25 00:30:12;;;;;;;14.83;6.23;;;;;;;-145.18;100.00;46660.41;6244142;23;20570;-78
2022/09/25 00:32:39;;;;;;;16.30;6.20;;;;;;;-145.18;100.00;46656.50;6244301;23;20784;-77
2022/09/25 00:35:05;;;;;;;11.33;5.77;;;;;;;-145.18;100.00;46658.44;6244458;23;20233;-78
2022/09/25 00:37:35;;;;;;;9.87;5.20;;;;;;;-145.18;100.00;46662.34;6243853;23;20241;-78
2022/09/25 00:40:00;;;;;;;15.90;6.07;;;;;;;-145.18;100.00;46658.44;6244440;23;20670;-78
2022/09/25 00:42:26;;;;;;;15.20;5.50;;;;;;;-145.18;100.00;46658.44;6244734;23;20237;-78
2022/09/25 00:44:57;;;;;;;15.07;5.83;;;;;;;-145.18;100.00;46660.41;6217937;23;20004;-78
2022/09/25 00:47:46;;;;;;;15.90;6.20;;;;;;;-145.18;100.00;46654.53;6217263;23;20004;-79
2022/09/25 00:50:22;;;;;;;13.23;5.60;;;;;;;-145.18;100.00;46654.53;6244168;23;20228;-78
2022/09/25 00:52:49;;;;;;;13.70;5.97;;;;;;;-145.18;100.00;46660.41;6243759;23;20575;-78
2022/09/25 00:55:14;;;;;;;16.00;6.50;;;;;;;-145.18;100.00;46658.44;6244766;23;20441;-79
2022/09/25 00:57:45;;;;;;;17.47;6.23;;;;;;;-145.18;100.00;46656.50;6244158;23;20555;-79
2022/09/25 01:00:12;;;;;;;16.40;6.37;;;;;;;-145.18;100.00;46656.50;6244290;23;20038;-79
2022/09/25 01:02:45;;;;;;;16.30;6.50;;;;;;;-145.18;100.00;46652.59;6243706;23;20226;-79
2022/09/25 01:05:20;;;;;;;15.63;5.63;;;;;;;-145.18;100.00;46652.59;6244409;23;20305;-80
2022/09/25 01:07:48;;;;;;;14.65;5.78;;;;;;;-145.18;100.00;46654.53;6244278;23;20222;-79
2022/09/25 01:10:15;;;;;;;10.90;5.60;;;;;;;-145.18;100.00;46658.44;6244059;23;20011;-79
2022/09/25 01:12:44;;;;;;;14.80;5.70;;;;;;;-145.18;100.00;46654.53;6243928;23;20437;-79
2022/09/25 01:15:13;;;;;;;12.57;5.53;;;;;;;-145.18;100.00;46658.44;6244159;23;20222;-79
2022/09/25 01:18:10;;;;;;;16.37;5.83;;;;;;;-145.18;100.00;46654.53;6243777;23;20000;-79
2022/09/25 01:20:35;;;;;;;;;;;;;;;-145.18;100.00;46658.44;6244841;23;20543;-79
2022/09/25 01:23:14;;;;;;;14.77;5.80;;;;;;;-145.18;100.00;46658.44;6243624;23;19908;-79
2022/09/25 01:25:59;;;;;;;17.00;5.77;;;;;;;-145.18;100.00;46658.44;6217526;23;20007;-79
2022/09/25 01:28:28;;;;;;;16.70;6.07;;;;;;;-145.18;100.00;46652.59;6244226;23;20337;-79
2022/09/25 01:31:00;;;;;;;13.33;5.80;;;;;;;-145.18;100.00;46656.50;6243501;23;20559;-78
2022/09/25 01:33:49;;;;;;;14.13;6.13;;;;;;;-145.18;100.00;46654.53;6243550;23;20760;-78
2022/09/25 01:36:27;;;;;;;13.07;5.77;;;;;;;-145.18;100.00;46658.44;6243717;23;20226;-78
2022/09/25 01:39:02;;;;;;;10.23;6.13;;;;;;;-145.18;100.00;46658.44;6243743;23;20528;-78
2022/09/25 01:41:34;;;;;;;16.50;5.38;;;;;;;-145.18;100.00;46660.41;6243674;23;20275;-78
2022/09/25 01:44:05;;;;;;;16.50;6.43;;;;;;;-145.18;100.00;46656.50;6216575;23;20031;-79
2022/09/25 01:46:35;;;;;;;15.40;6.77;;;;;;;-145.18;100.00;46656.50;6243807;23;20221;-78
2022/09/25 01:49:16;;;;;;;18.07;6.30;;;;;;;-145.18;100.00;46658.44;6243540;23;20667;-79
2022/09/25 01:51:46;;;;;;;12.93;6.07;;;;;;;-145.18;100.00;46658.44;6243639;23;20627;-78
2022/09/25 01:54:23;;;;;;;17.83;6.53;;;;;;;-145.18;100.00;46660.41;6243720;23;20555;-78
2022/09/25 01:57:19;;;;;;;19.13;6.27;;;;;;;-145.18;100.00;46652.59;6243371;23;20264;-79
2022/09/25 01:59:52;;;;;;;16.73;6.43;;;;;;;-145.18;100.00;46658.44;6240436;23;20545;-78
2022/09/25 02:02:22;;;;;;;20.47;6.63;;;;;;;-145.18;100.00;46654.53;6223983;22;20276;-78
2022/09/25 02:04:55;;;;;;;9.87;5.70;;;;;;;-145.18;100.00;46656.50;6270770;22;20293;-79
2022/09/25 02:07:27;;;;;;;13.00;6.07;;;;;;;-145.18;100.00;46660.41;6273689;22;20731;-79
2022/09/25 02:10:01;;;;;;;15.07;5.87;;;;;;;-145.18;100.00;46658.44;6245881;22;20543;-79
2022/09/25 02:12:39;;;;;;;17.13;6.80;;;;;;;-145.18;100.00;46656.50;6273292;22;20263;-79
2022/09/25 02:15:18;;;;;;;11.30;5.93;;;;;;;-145.18;100.00;46654.53;6273717;22;20692;-78
2022/09/25 02:20:40;;;;;;;17.77;6.57;;;;;;;-145.18;100.00;46648.69;6273965;22;20274;-78
2022/09/25 02:23:17;;;;;;;15.23;6.00;;;;;;;-145.18;100.00;46654.53;6273276;22;20245;-78
2022/09/25 02:26:03;;;;;;;16.37;6.60;;;;;;;-145.18;100.00;46660.41;6273328;22;20236;-78
2022/09/25 02:28:29;;;;;;;19.50;6.72;;;;;;;-145.18;100.00;46652.59;6273782;22;20213;-79
2022/09/25 02:30:57;;;;;;;13.67;5.83;;;;;;;-145.18;100.00;46656.50;6273511;22;20015;-78
2022/09/25 02:33:25;;;;;;;16.87;7.33;;;;;;;-145.18;100.00;46654.53;6273660;22;20053;-78
2022/09/25 02:35:51;;;;;;;18.50;7.23;;;;;;;-145.18;100.00;46658.44;6246526;22;20315;-79
2022/09/25 02:38:17;;;;;;;14.37;7.10;;;;;;;-145.18;100.00;46654.53;6245954;22;20329;-78
2022/09/25 02:41:07;;;;;;;18.10;6.63;;;;;;;-145.18;100.00;46650.63;6273447;22;20257;-79
2022/09/25 02:44:05;;;;;;;10.90;6.13;;;;;;;-145.18;100.00;46658.44;6273084;22;20007;-79
2022/09/25 02:47:07;;;;;;;11.67;6.30;;;;;;;-145.18;100.00;46650.63;6273563;22;20367;-79
2022/09/25 02:49:51;;;;;;;16.50;6.77;;;;;;;-145.18;100.00;46656.50;6273611;22;20266;-79
2022/09/25 02:52:34;;;;;;;14.30;6.33;;;;;;;-145.18;100.00;46652.59;6272924;22;20235;-79
2022/09/25 02:55:06;;;;;;;14.47;6.00;;;;;;;-145.18;100.00;46658.44;6273671;22;20232;-78
2022/09/25 02:57:48;;;;;;;15.47;7.67;;;;;;;-145.18;100.00;46654.53;6272928;22;20233;-79
2022/09/25 03:00:14;;;;;;;15.20;6.43;;;;;;;-145.18;100.00;46654.53;6273726;22;20235;-78
2022/09/25 03:02:41;;;;;;;15.47;5.80;;;;;;;-145.18;100.00;46656.50;6272695;22;20249;-79
2022/09/25 03:05:11;;;;;;;15.60;6.17;;;;;;;-145.18;100.00;46652.59;6273552;22;20225;-80
2022/09/25 03:10:22;;;;;;;8.67;5.07;;;;;;;-145.18;100.00;46656.50;6273995;22;20559;-80
2022/09/25 03:12:47;;;;;;;12.20;5.70;;;;;;;-145.18;100.00;46654.53;6272665;22;20232;-79
2022/09/25 03:15:13;;;;;;;14.20;6.93;;;;;;;-145.18;100.00;46652.59;6246565;22;20233;-78
2022/09/25 03:17:38;;;;;;;17.37;5.30;;;;;;;-145.18;100.00;46652.59;6272807;22;20310;-77
2022/09/25 03:20:05;;;;;;;16.93;5.93;;;;;;;-145.18;100.00;46652.59;6273269;22;20408;-77
2022/09/25 03:22:31;;;;;;;15.30;6.10;;;;;;;-145.18;100.00;46650.63;6272850;22;20000;-77
2022/09/25 03:24:56;;;;;;;13.77;7.10;;;;;;;-145.18;100.00;46652.59;6273345;22;20239;-78
2022/09/25 03:27:22;;;;;;;11.30;5.97;;;;;;;-145.18;100.00;46652.59;6272969;22;20380;-78
2022/09/25 03:29:48;;;;;;;13.27;5.63;;;;;;;-145.18;100.00;46658.44;6273645;22;20036;-77
2022/09/25 03:32:14;;;;;;;15.17;5.40;;;;;;;-145.18;100.00;46652.59;6272631;22;20004;-77
2022/09/25 03:34:39;;;;;;;13.57;5.57;;;;;;;-145.18;100.00;46652.59;6273553;22;20637;-77
2022/09/25 03:37:05;;;;;;;11.13;4.70;;;;;;;-145.18;100.00;46658.44;6273095;22;20405;-78
2022/09/25 03:39:30;;;;;;;8.03;4.57;;;;;;;-145.18;100.00;46652.59;6273618;22;20391;-77
2022/09/25 03:41:55;;;;;;;9.77;5.10;;;;;;;-145.18;100.00;46658.44;6272446;22;20712;-78
2022/09/25 03:44:21;;;;;;;7.80;4.77;;;;;;;-145.18;100.00;46656.50;6273509;22;20018;-78
2022/09/25 03:46:46;;;;;;;7.70;4.53;;;;;;;-145.18;100.00;46656.50;6246183;22;20380;-77
2022/09/25 03:49:12;;;;;;;13.37;4.93;;;;;;;-145.18;100.00;46652.59;6245991;22;20013;-78
2022/09/25 03:51:38;;;;;;;9.60;4.37;;;;;;;-145.18;100.00;46658.44;6273623;22;20018;-78
2022/09/25 03:54:04;;;;;;;12.63;5.43;;;;;;;-145.18;100.00;46656.50;6274412;22;20229;-78
2022/09/25 03:56:29;;;;;;;16.47;5.50;;;;;;;-145.18;100.00;46656.50;6275520;22;20087;-78
2022/09/25 03:58:55;;;;;;;11.33;4.93;;;;;;;-145.18;100.00;46654.53;6274987;22;20075;-78
2022/09/25 04:01:22;;;;;;;11.83;5.67;;;;;;;-145.18;100.00;46656.50;6275523;22;20000;-78
2022/09/25 04:03:49;;;;;;;10.07;5.20;;;;;;;-145.18;100.00;46656.50;6274100;22;20256;-78
2022/09/25 04:06:17;;;;;;;11.37;5.30;;;;;;;-145.18;100.00;46654.53;6275593;22;20363;-78
2022/09/25 04:08:43;;;;;;;13.17;5.80;;;;;;;-145.18;100.00;46654.53;6247197;22;20788;-78
2022/09/25 04:11:09;;;;;;;17.13;5.60;;;;;;;-145.18;100.00;46654.53;6275119;22;20228;-78
2022/09/25 04:13:35;;;;;;;13.10;5.90;;;;;;;-145.18;100.00;46656.50;6274298;22;20221;-78
2022/09/25 04:16:03;;;;;;;16.63;6.40;;;;;;;-145.18;100.00;46646.72;6273820;22;20011;-78
2022/09/25 04:18:30;;;;;;;14.47;5.97;;;;;;;-145.18;100.00;46656.50;6246379;22;20290;-78
2022/09/25 04:21:00;;;;;;;12.80;6.17;;;;;;;-145.18;100.00;46650.63;6274196;22;20225;-79
2022/09/25 04:23:26;;;;;;;12.70;5.87;;;;;;;-145.18;100.00;46648.69;6274359;22;20257;-78
2022/09/25 04:25:52;;;;;;;15.50;6.43;;;;;;;-145.18;100.00;46652.59;6274792;22;20339;-78
2022/09/25 04:28:18;;;;;;;14.57;6.77;;;;;;;-145.18;100.00;46654.53;6274049;22;20229;-78
2022/09/25 04:36:00;;;;;;;9.30;5.00;;;;;;;-145.18;100.00;46654.53;6212575;23;20281;-79
2022/09/25 04:38:25;;;;;;;13.50;5.27;;;;;;;-145.18;100.00;46658.44;6212595;23;20675;-79
2022/09/25 04:40:51;;;;;;;12.93;6.07;;;;;;;-145.18;100.00;46652.59;6213138;23;20342;-79
2022/09/25 04:43:17;;;;;;;13.83;5.60;;;;;;;-145.18;100.00;46652.59;6212144;23;20527;-79
2022/09/25 04:45:42;;;;;;;11.27;6.47;;;;;;;-145.18;100.00;46658.44;6213969;23;20008;-78
2022/09/25 04:48:08;;;;;;;14.43;6.10;;;;;;;-145.18;100.00;46658.44;6213230;23;20257;-78
2022/09/25 04:50:33;;;;;;;16.73;5.93;;;;;;;-145.18;100.00;46650.63;6187312;23;20009;-79
2022/09/25 04:52:59;;;;;;;11.50;5.50;;;;;;;-145.18;100.00;46656.50;6213712;23;20434;-78
2022/09/25 04:55:26;;;;;;;15.47;5.87;;;;;;;-145.18;100.00;46654.53;6213917;23;20009;-78
2022/09/25 04:57:59;;;;;;;16.90;5.53;;;;;;;-145.18;100.00;46656.50;6212990;23;20699;-78
2022/09/25 05:00:28;;;;;;;14.40;6.43;;;;;;;-145.18;100.00;46654.53;6211050;23;20237;-79
2022/09/25 05:02:53;;;;;;;14.10;5.43;;;;;;;-145.18;100.00;46652.59;6213056;23;20305;-79
2022/09/25 05:05:19;;;;;;;7.80;5.47;;;;;;;-145.18;100.00;46656.50;6214140;23;20679;-78
2022/09/25 05:07:56;;;;;;;15.77;5.73;;;;;;;-145.18;100.00;46652.59;6213881;23;20329;-78
2022/09/25 05:10:22;;;;;;;9.63;5.37;;;;;;;-145.18;100.00;46652.59;6212581;23;20362;-80
2022/09/25 05:12:54;;;;;;;9.63;5.20;;;;;;;-145.18;100.00;46654.53;6210698;23;20226;-79
2022/09/25 05:15:19;;;;;;;13.10;4.50;;;;;;;-145.18;100.00;46654.53;6211828;23;20277;-80
2022/09/25 05:17:44;;;;;;;10.27;5.07;;;;;;;-145.18;100.00;46652.59;6211945;23;20547;-78
2022/09/25 05:20:10;;;;;;;11.73;5.37;;;;;;;-145.18;100.00;46652.59;6212643;23;20036;-78
2022/09/25 05:22:35;;;;;;;12.00;5.77;;;;;;;-145.18;100.00;46652.59;6210872;23;20005;-77
2022/09/25 05:25:00;;;;;;;10.23;4.60;;;;;;;-145.18;100.00;46652.59;6212318;23;20012;-79
2022/09/25 05:27:26;;;;;;;8.33;3.60;;;;;;;-145.18;100.00;46650.63;6211439;23;20143;-78
2022/09/25 05:29:51;;;;;;;9.17;3.67;;;;;;;-145.18;100.00;46654.53;6213386;23;20084;-78
2022/09/25 05:32:17;;;;;;;5.23;3.17;;;;;;;-145.18;100.00;46654.53;6212481;23;20349;-78
2022/09/25 05:34:42;;;;;;;7.00;3.40;;;;;;;-145.18;100.00;46650.63;6213656;23;20017;-79
2022/09/25 05:37:07;;;;;;;5.07;3.13;;;;;;;-145.18;100.00;46654.53;6213182;23;20001;-78
2022/09/25 05:39:33;;;;;;;4.47;2.90;;;;;;;-145.18;100.00;46650.63;6213422;23;20004;-79
2022/09/25 05:41:58;;;;;;;6.93;3.17;;;;;;;-145.18;100.00;46654.53;6211981;23;20005;-79
2022/09/25 05:44:27;;;;;;;6.67;3.60;;;;;;;-145.18;100.00;46648.69;6212685;23;20044;-78
2022/09/25 05:46:55;;;;;;;80.77;4.57;;;;;;;-145.18;100.00;46654.53;6213534;23;20365;-78
2022/09/25 05:49:20;;;;;;;332.17;9.37;;;;;;;-145.18;100.00;46648.69;6213469;23;20234;-77
2022/09/25 05:51:47;;;;;;;70.27;4.20;;;;;;;-145.18;100.00;46656.50;6213277;23;20317;-78
2022/09/25 05:54:12;;;;;;;16.97;4.33;;;;;;;-145.18;100.00;46652.59;6211489;23;20012;-78
2022/09/25 05:56:37;;;;;;;7.63;3.37;;;;;;;-145.18;100.00;46652.59;6211356;23;20238;-78
2022/09/25 05:59:03;;;;;;;19.67;3.83;;;;;;;-145.18;100.00;46654.53;6212205;23;20080;-78
2022/09/25 06:01:28;;;;;;;10.20;4.60;;;;;;;-145.18;100.00;46652.59;6209754;23;20012;-78
2022/09/25 06:03:54;;;;;;;7.73;4.20;;;;;;;-145.18;100.00;46650.63;6212552;23;20012;-78
2022/09/25 06:06:20;;;;;;;6.10;4.10;;;;;;;-145.18;100.00;46654.53;6211045;23;20368;-78
2022/09/25 06:08:45;;;;;;;3.53;2.50;;;;;;;-145.18;100.00;46650.63;6212396;23;20425;-78
2022/09/25 06:11:11;;;;;;;2.90;2.20;;;;;;;-145.18;100.00;46654.53;6212753;23;20230;-78
2022/09/25 06:13:37;;;;;;;7.33;3.43;;;;;;;-145.18;100.00;46660.41;6210258;23;20319;-78
2022/09/25 06:16:04;;;;;;;5.40;3.10;;;;;;;-145.18;100.00;46658.44;6212112;23;20004;-78
2022/09/25 06:18:31;;;;;;;9.43;3.43;;;;;;;-145.18;100.00;46652.59;6210835;23;20230;-79
2022/09/25 06:21:04;;;;;;;11.37;4.50;;;;;;;-145.18;100.00;46650.63;6211688;23;20227;-78
2022/09/25 06:23:29;;;;;;;7.17;3.93;;;;;;;-145.18;100.00;46654.53;6211442;23;20242;-78
2022/09/25 06:26:00;;;;;;;7.87;4.20;;;;;;;-145.18;100.00;46652.59;6212000;23;20324;-78
2022/09/25 06:28:26;;;;;;;13.37;5.37;;;;;;;-145.18;100.00;46646.72;6211782;23;20001;-78
2022/09/25 06:30:51;;;;;;;11.33;5.07;;;;;;;-145.18;100.00;46648.69;6212186;23;20230;-78
2022/09/25 06:33:16;;;;;;;11.00;5.77;;;;;;;-145.18;100.00;46648.69;6211630;23;20341;-78
2022/09/25 06:35:43;;;;;;;10.27;5.27;;;;;;;-145.18;100.00;46652.59;6211490;23;20005;-78
2022/09/25 06:38:10;;;;;;;15.03;6.20;;;;;;;-145.18;100.00;46650.63;6210854;23;20091;-78
2022/09/25 06:40:39;;;;;;;13.03;5.70;;;;;;;-145.18;100.00;46648.69;6210293;23;20837;-78
2022/09/25 06:43:06;;;;;;;13.57;6.10;;;;;;;-145.18;100.00;46650.63;6211646;23;20242;-78
2022/09/25 06:45:33;;;;;;;12.70;5.90;;;;;;;-145.18;100.00;46650.63;6212050;23;20226;-78
2022/09/25 06:48:04;;;;;;;10.50;5.50;;;;;;;-145.18;100.00;46650.63;6211477;23;20230;-78
2022/09/25 06:50:39;;;;;;;11.87;6.37;;;;;;;-145.18;100.00;46642.81;6211898;23;20301;-79
2022/09/25 06:53:05;;;;;;;13.70;5.43;;;;;;;-145.18;100.00;46652.59;6209922;23;20252;-78
2022/09/25 06:55:33;;;;;;;10.57;5.90;;;;;;;-145.18;100.00;46646.72;6212239;23;20009;-78
2022/09/25 06:58:00;;;;;;;13.27;5.40;;;;;;;-145.18;100.00;46652.59;6210034;23;20078;-78
2022/09/25 07:00:25;;;;;;;11.90;5.17;;;;;;;-145.18;100.00;46648.69;6211785;23;20013;-78
2022/09/25 07:05:35;;;;;;;9.37;4.93;;;;;;;-145.18;100.00;46646.72;6212679;23;20019;-78
2022/09/25 07:08:00;;;;;;;16.80;5.43;;;;;;;-145.18;100.00;46650.63;6212570;23;20083;-79
2022/09/25 07:10:26;;;;;;;11.47;4.60;;;;;;;-145.18;100.00;46652.59;6212356;23;20005;-79
2022/09/25 07:12:51;;;;;;;10.80;5.10;;;;;;;-145.18;100.00;46652.59;6211348;23;20418;-79
2022/09/25 07:15:17;;;;;;;7.77;4.30;;;;;;;-145.18;100.00;46648.69;6208894;23;20426;-79
2022/09/25 07:17:45;;;;;;;11.57;4.00;;;;;;;-145.18;100.00;46656.50;6212330;23;20015;-79
2022/09/25 07:20:14;;;;;;;12.40;4.30;;;;;;;-145.18;100.00;46654.53;6212204;23;20099;-79
2022/09/25 07:22:41;;;;;;;11.27;3.50;;;;;;;-145.18;100.00;46656.50;6210091;23;20005;-79
2022/09/25 07:25:08;;;;;;;8.43;3.63;;;;;;;-145.18;100.00;46658.44;6183300;23;20016;-80
2022/09/25 07:27:33;;;;;;;11.20;3.00;;;;;;;-145.18;100.00;46660.41;6210017;23;20449;-80
2022/09/25 07:29:59;;;;;;;13.57;3.57;;;;;;;-145.18;100.00;46660.41;6210890;23;20009;-81
2022/09/25 07:32:25;;;;;;;10.07;3.43;;;;;;;-145.18;100.00;46656.50;6211286;23;20017;-83
2022/09/25 07:34:50;;;;;;;9.03;3.17;;;;;;;-145.18;100.00;46662.34;6212520;23;20011;-78
2022/09/25 07:37:19;;;;;;;9.80;2.90;;;;;;;-145.18;100.00;46664.31;6211827;23;20054;-78
2022/09/25 07:39:44;;;;;;;7.83;3.10;;;;;;;-145.18;100.00;46670.16;6210485;23;20442;-78
2022/09/25 07:42:10;;;;;;;9.20;3.30;;;;;;;-145.18;100.00;46672.13;6212223;23;20024;-78
2022/09/25 07:44:35;;;;;;;11.03;3.10;;;;;;;-145.18;100.00;46672.13;6212067;23;20008;-79
2022/09/25 07:47:02;;;;;;;9.10;2.97;;;;;;;-145.18;100.00;46670.16;6212217;23;20012;-79
2022/09/25 07:49:28;;;;;;;7.83;3.10;;;;;;;-145.18;100.00;46674.06;6210743;23;20001;-78
2022/09/25 07:51:54;;;;;;;14.00;3.50;;;;;;;-145.18;100.00;46674.06;6210416;23;20020;-78
2022/09/25 07:54:19;;;;;;;10.97;2.90;;;;;;;-145.18;100.00;46676.03;6212467;23;20438;-78
2022/09/25 07:56:45;;;;;;;10.30;3.40;;;;;;;-145.18;100.00;46672.13;6210168;23;20013;-80
2022/09/25 07:59:10;;;;;;;11.40;2.73;;;;;;;-145.18;100.00;46674.06;6212264;23;20422;-79
2022/09/25 08:01:35;;;;;;;9.37;3.27;;;;;;;-145.18;100.00;46679.94;6211619;23;20009;-78
2022/09/25 08:04:01;;;;;;;9.03;2.63;;;;;;;-145.18;100.00;46679.94;6211366;23;20016;-78
2022/09/25 08:06:26;;;;;;;7.43;3.20;;;;;;;-145.18;100.00;46677.97;6212880;23;20362;-77
2022/09/25 08:08:52;;;;;;;8.73;2.50;;;;;;;-145.18;100.00;46683.84;6209018;23;20040;-78
2022/09/25 08:11:17;;;;;;;4.67;2.77;;;;;;;-145.18;100.00;46679.94;6211943;23;20009;-81
2022/09/25 08:13:43;;;;;;;9.40;3.20;;;;;;;-145.18;100.00;46687.75;6211954;23;20055;-79
2022/09/25 08:16:14;;;;;;;8.67;2.90;;;;;;;-145.18;100.00;46681.88;6212098;23;20009;-80
2022/09/25 08:18:41;;;;;;;6.70;2.50;;;;;;;-145.18;100.00;46681.88;6208258;23;20076;-78
2022/09/25 08:21:07;;;;;;;9.73;2.80;;;;;;;-145.18;100.00;46679.94;6210442;23;20020;-79
2022/09/25 08:23:33;;;;;;;9.47;2.53;;;;;;;-145.18;100.00;46689.69;6211369;23;20088;-81
2022/09/25 08:25:59;;;;;;;9.00;2.63;;;;;;;-145.18;100.00;46687.75;6210393;23;20341;-78
2022/09/25 08:28:24;;;;;;;5.20;2.20;;;;;;;-145.18;100.00;46685.78;6210889;23;20004;-80
2022/09/25 08:30:50;;;;;;;6.77;2.33;;;;;;;-145.18;100.00;46687.75;6211184;23;20009;-78
2022/09/25 08:33:16;;;;;;;7.97;2.23;;;;;;;-145.18;100.00;46689.69;6209862;23;20024;-78
2022/09/25 08:35:42;;;;;;;8.03;2.67;;;;;;;-145.18;100.00;46691.66;6209396;23;20017;-78
2022/09/25 08:38:10;;;;;;;6.77;2.27;;;;;;;-145.18;100.00;46691.66;6210835;23;20009;-78
2022/09/25 08:40:44;;;;;;;4.33;2.10;;;;;;;-145.18;100.00;46689.69;6212339;23;20020;-81
2022/09/25 08:43:19;;;;;;;8.85;3.22;;;;;;;-145.18;100.00;46687.75;6212785;23;20004;-81
2022/09/25 08:51:25;;;;;;;6.57;2.00;;;;;;;-145.18;100.00;46638.91;6212849;23;20035;-79
2022/09/25 08:53:50;;;;;;;6.13;1.60;;;;;;;-145.18;100.00;46601.78;6212387;23;20032;-81
2022/09/25 08:56:18;;;;;;;5.90;1.73;;;;;;;-145.18;100.00;46607.66;6212747;23;20063;-79
2022/09/25 08:58:51;;;;;;;5.23;1.50;;;;;;;-145.18;100.00;46599.84;6210568;23;20009;-81
2022/09/25 09:01:21;;;;;;;8.70;1.73;;;;;;;-145.18;100.00;46588.13;6213264;23;20007;-81
2022/09/25 09:03:52;;;;;;;8.10;1.13;;;;;;;-145.18;100.00;46566.63;6212799;23;20005;-80
2022/09/25 09:06:18;;;;;;;3.30;1.10;;;;;;;-145.18;100.00;46574.44;6212427;23;20005;-81
2022/09/25 09:08:54;;;;;;;6.50;0.80;;;;;;;-145.18;100.00;46595.94;6210637;23;20536;-81
2022/09/25 09:11:42;;;;;;;4.93;1.00;;;;;;;-145.18;100.00;46609.59;6210586;23;20031;-81
2022/09/25 09:14:15;;;;;;;7.20;1.20;;;;;;;-145.18;100.00;46609.59;6211343;23;20028;-81
2022/09/25 09:16:59;;;;;;;8.20;1.97;;;;;;;-145.18;100.00;46599.84;6211089;23;20043;-80
2022/09/25 09:19:25;;;;;;;3.33;1.20;;;;;;;-145.18;100.00;46592.03;6211705;23;20009;-81
2022/09/25 09:22:01;;;;;;;7.00;1.03;;;;;;;-145.18;100.00;46607.66;6212338;23;20015;-81
2022/09/25 09:24:44;;;;;;;6.07;1.03;;;;;;;-145.18;100.00;46635.00;6213038;23;20005;-81
2022/09/25 09:27:28;;;;;;;6.30;1.23;;;;;;;-145.18;100.00;46617.41;6212075;23;20027;-81
2022/09/25 09:30:23;;;;;;;9.33;1.87;;;;;;;-145.18;100.00;46609.59;6212072;23;20001;-81
2022/09/25 09:33:37;;;;;;;2.73;0.87;;;;;;;-145.18;100.00;46629.13;6195609;23;20025;-81
2022/09/25 09:36:31;;;;;;;7.83;1.73;;;;;;;-145.18;100.00;46631.09;6143975;23;20093;-81
2022/09/25 09:39:09;;;;;;;3.90;1.27;;;;;;;-145.18;100.00;46617.41;6212598;23;20016;-81
2022/09/25 09:41:34;;;;;;;7.97;1.10;;;;;;;-145.18;100.00;46611.56;6211371;23;20039;-82
2022/09/25 09:44:11;;;;;;;7.40;1.00;;;;;;;-145.18;100.00;46627.19;6212468;23;20009;-82
2022/09/25 09:46:57;;;;;;;4.10;0.80;;;;;;;-145.18;100.00;46617.41;6212890;23;20079;-81
2022/09/25 09:49:38;;;;;;;4.97;1.30;;;;;;;-145.18;100.00;46623.28;6212650;23;20001;-82
2022/09/25 09:52:20;;;;;;;3.83;0.90;;;;;;;-145.18;100.00;46636.94;6211907;23;20008;-82
2022/09/25 09:54:52;;;;;;;8.37;1.20;;;;;;;-145.18;100.00;46621.31;6213363;23;20366;-82
2022/09/25 09:57:26;;;;;;;7.50;1.20;;;;;;;-145.18;100.00;46633.06;6212839;23;20027;-82
2022/09/25 10:00:16;;;;;;;4.37;1.00;;;;;;;-145.18;100.00;46621.31;6212901;23;20032;-81
2022/09/25 10:02:49;;;;;;;4.00;1.40;;;;;;;-145.18;100.00;46636.94;6201151;23;20016;-81
2022/09/25 10:05:34;;;;;;;3.03;1.00;;;;;;;-145.18;100.00;46625.22;6212632;23;20048;-81
2022/09/25 10:07:59;;;;;;;4.07;0.90;;;;;;;-145.18;100.00;46611.56;6211793;23;20004;-81
2022/09/25 10:10:46;;;;;;;5.50;1.00;;;;;;;-145.18;100.00;46613.50;6211091;23;20016;-80
2022/09/25 10:13:20;;;;;;;3.23;1.20;;;;;;;-145.18;100.00;46640.88;6211491;23;20016;-80
2022/09/25 10:15:57;;;;;;;12.03;1.30;;;;;;;-145.18;100.00;46633.06;6212374;23;20009;-80
2022/09/25 10:18:27;;;;;;;6.73;1.00;;;;;;;-145.18;100.00;46601.78;6211575;23;20008;-80
2022/09/25 10:21:06;;;;;;;5.37;1.40;;;;;;;-145.18;100.00;46629.13;6212758;23;20448;-80
2022/09/25 10:23:49;;;;;;;5.70;1.03;;;;;;;-145.18;100.00;46642.81;6212343;23;20048;-80
2022/09/25 10:26:24;;;;;;;4.87;0.87;;;;;;;-145.18;100.00;46668.22;6212855;23;20019;-80
2022/09/25 10:28:49;;;;;;;3.90;0.90;;;;;;;-145.18;100.00;46652.59;6212969;23;20031;-79
2022/09/25 10:31:17;;;;;;;5.47;1.00;;;;;;;-145.18;100.00;46633.06;6212808;23;19997;-80
2022/09/25 10:33:58;;;;;;;5.37;0.73;;;;;;;-145.18;100.00;46633.06;6212296;23;20008;-79
2022/09/25 10:36:46;;;;;;;3.57;1.17;;;;;;;-145.18;100.00;46644.78;6212992;23;20005;-79
2022/09/25 10:39:33;;;;;;;4.40;1.20;;;;;;;-145.18;100.00;46662.34;6212261;23;20005;-80
2022/09/25 10:42:00;;;;;;;4.50;0.90;;;;;;;-145.18;100.00;46646.72;6213447;23;20437;-80
2022/09/25 10:44:34;;;;;;;6.10;1.30;;;;;;;-145.18;100.00;46679.94;6212295;23;20099;-79
2022/09/25 10:50:20;;;;;;;4.33;1.40;;;;;;;-145.18;100.00;46656.50;6212960;23;20074;-79
2022/09/25 10:52:51;;;;;;;5.10;1.03;;;;;;;-145.18;100.00;46658.44;6212464;23;20012;-80
2022/09/25 10:55:24;;;;;;;5.50;1.17;;;;;;;-145.18;100.00;46693.59;6212032;23;20007;-79
2022/09/25 10:57:56;;;;;;;4.73;1.30;;;;;;;-145.18;100.00;46666.25;6213226;23;20325;-79
2022/09/25 11:00:25;;;;;;;4.00;1.00;;;;;;;-145.18;100.00;46685.78;6211636;23;19997;-79
2022/09/25 11:02:55;;;;;;;4.40;0.83;;;;;;;-145.18;100.00;46701.41;6212009;23;20043;-79
2022/09/25 11:05:34;;;;;;;5.97;1.50;;;;;;;-145.18;100.00;46773.69;6213094;23;20004;-79
2022/09/25 11:08:04;;;;;;;5.83;0.90;;;;;;;-145.18;100.00;47271.84;6212670;23;20521;-79
2022/09/25 11:10:35;;;;;;;4.27;1.00;;;;;;;-145.18;100.00;47154.63;6212496;23;20001;-78
2022/09/25 11:13:07;;;;;;;3.33;1.07;;;;;;;-145.18;100.00;47217.13;6212028;23;20028;-78
2022/09/25 11:15:37;;;;;;;2.03;0.90;;;;;;;-145.18;100.00;47287.47;6212087;23;20000;-78
2022/09/25 11:18:05;;;;;;;4.93;1.20;;;;;;;-145.18;100.00;47275.75;6212845;23;20471;-78
2022/09/25 11:20:31;;;;;;;4.53;1.10;;;;;;;-145.18;100.00;47348.03;6212136;23;20023;-79
2022/09/25 11:23:12;;;;;;;4.03;1.10;;;;;;;-145.18;100.00;47416.41;6212017;23;20001;-79
2022/09/25 11:25:47;;;;;;;4.47;0.80;;;;;;;-145.18;100.00;47258.16;6211469;23;20334;-79
2022/09/25 11:28:36;;;;;;;4.60;1.00;;;;;;;-145.18;100.00;47289.41;6212058;23;20008;-79
2022/09/25 11:31:14;;;;;;;6.17;0.97;;;;;;;-145.18;100.00;46926.06;6210019;23;20023;-79
2022/09/25 11:33:46;;;;;;;3.77;0.87;;;;;;;-145.18;100.00;46828.38;6209621;23;20067;-79
2022/09/25 11:36:19;;;;;;;5.10;0.83;;;;;;;-145.18;100.00;46781.50;6211529;23;20004;-79
2022/09/25 11:41:44;;;;;;;6.60;0.90;;;;;;;-145.18;100.00;47248.41;6210923;23;20402;-80
2022/09/25 11:44:53;;;;;;;2.43;0.90;;;;;;;-145.18;100.00;47211.28;6211509;23;20484;-80